South Kearny, New Jersey
Current Conditions -  °F | °C
As of 10:51 PM on Sunday 23 Nov 2014 (Local Time) from KEWR Reporting Station
Overcast Overcast  
Wind Chill: 50°   Ceiling: 4500
Heat Index: 50°   Visibility: 10mi
Dew Point: 42°   Wind: 0mph
Humidity: 74%   Direction: NA
Pressure: 30.03"   Gusts: NA
Location:  40.7563°N, 74.1217°W
Report Text: KEWR 240351Z 00000KT 10SM BKN045 OVC180 10/06 A3003 RMK AO2 SLP167 T01000056
Loading
Personal Weather Stations






























Interactive Weather Map New forecast layout! Learn more

10-Day Weather Forecast

Advertisements
Track Severe Weather on mobile